sensor_id;sensor_type;location;lat;lon;timestamp;pressure;altitude;pressure_sealevel;temperature;humidity
68169;BME280;54981;50.206;15.978;2023-11-21T00:04:15;98174.91;;;4.83;100.00
68169;BME280;54981;50.206;15.978;2023-11-21T00:14:16;98168.59;;;4.87;100.00
68169;BME280;54981;50.206;15.978;2023-11-21T00:24:16;98180.34;;;4.80;100.00
68169;BME280;54981;50.206;15.978;2023-11-21T00:34:17;98202.91;;;4.67;100.00
68169;BME280;54981;50.206;15.978;2023-11-21T00:44:18;98198.53;;;4.86;100.00
68169;BME280;54981;50.206;15.978;2023-11-21T00:54:18;98189.59;;;5.09;100.00
68169;BME280;54981;50.206;15.978;2023-11-21T01:04:18;98195.75;;;5.10;100.00
68169;BME280;54981;50.206;15.978;2023-11-21T01:14:19;98198.88;;;5.18;100.00
68169;BME280;54981;50.206;15.978;2023-11-21T01:24:19;98193.19;;;5.27;100.00
68169;BME280;54981;50.206;15.978;2023-11-21T01:34:20;98181.00;;;5.44;100.00
68169;BME280;54981;50.206;15.978;2023-11-21T01:44:20;98180.16;;;5.24;100.00
68169;BME280;54981;50.206;15.978;2023-11-21T01:54:21;98183.28;;;5.51;100.00
68169;BME280;54981;50.206;15.978;2023-11-21T02:04:22;98179.06;;;5.66;100.00
68169;BME280;54981;50.206;15.978;2023-11-21T02:14:22;98184.47;;;5.82;100.00
68169;BME280;54981;50.206;15.978;2023-11-21T02:24:23;98198.75;;;5.78;100.00
68169;BME280;54981;50.206;15.978;2023-11-21T02:34:23;98187.03;;;5.65;100.00
68169;BME280;54981;50.206;15.978;2023-11-21T02:44:25;98189.34;;;5.34;100.00
68169;BME280;54981;50.206;15.978;2023-11-21T02:54:26;98192.31;;;5.08;100.00
68169;BME280;54981;50.206;15.978;2023-11-21T03:04:27;98190.66;;;5.05;100.00
68169;BME280;54981;50.206;15.978;2023-11-21T03:14:27;98194.50;;;4.78;100.00
68169;BME280;54981;50.206;15.978;2023-11-21T03:24:28;98189.03;;;5.03;100.00
68169;BME280;54981;50.206;15.978;2023-11-21T03:34:28;98199.16;;;5.12;100.00
68169;BME280;54981;50.206;15.978;2023-11-21T03:44:28;98192.31;;;5.08;100.00
68169;BME280;54981;50.206;15.978;2023-11-21T03:54:29;98214.88;;;5.15;100.00
68169;BME280;54981;50.206;15.978;2023-11-21T04:04:29;98218.06;;;5.22;100.00
68169;BME280;54981;50.206;15.978;2023-11-21T04:14:29;98223.09;;;5.47;100.00
68169;BME280;54981;50.206;15.978;2023-11-21T04:24:30;98221.47;;;5.44;100.00
68169;BME280;54981;50.206;15.978;2023-11-21T04:34:30;98218.03;;;5.61;100.00
68169;BME280;54981;50.206;15.978;2023-11-21T04:44:31;98225.53;;;5.70;100.00
68169;BME280;54981;50.206;15.978;2023-11-21T04:54:31;98229.28;;;5.84;100.00
68169;BME280;54981;50.206;15.978;2023-11-21T05:04:31;98231.38;;;5.96;100.00
68169;BME280;54981;50.206;15.978;2023-11-21T05:14:32;98226.88;;;5.98;100.00
68169;BME280;54981;50.206;15.978;2023-11-21T05:24:32;98227.16;;;5.92;100.00
68169;BME280;54981;50.206;15.978;2023-11-21T05:34:32;98246.44;;;5.94;100.00
68169;BME280;54981;50.206;15.978;2023-11-21T05:44:33;98246.72;;;5.88;100.00
68169;BME280;54981;50.206;15.978;2023-11-21T05:54:35;98242.31;;;6.07;100.00
68169;BME280;54981;50.206;15.978;2023-11-21T06:04:35;98253.03;;;6.04;100.00
68169;BME280;54981;50.206;15.978;2023-11-21T06:14:36;98263.97;;;5.96;100.00
68169;BME280;54981;50.206;15.978;2023-11-21T06:24:37;98266.00;;;5.90;100.00
68169;BME280;54981;50.206;15.978;2023-11-21T06:34:37;98274.28;;;6.01;100.00
68169;BME280;54981;50.206;15.978;2023-11-21T06:44:38;98274.06;;;6.06;100.00
68169;BME280;54981;50.206;15.978;2023-11-21T06:54:39;98283.81;;;6.05;100.00
68169;BME280;54981;50.206;15.978;2023-11-21T07:04:40;98286.72;;;6.18;100.00
68169;BME280;54981;50.206;15.978;2023-11-21T07:14:40;98303.53;;;6.53;100.00
68169;BME280;54981;50.206;15.978;2023-11-21T07:24:43;98291.97;;;6.91;100.00
68169;BME280;54981;50.206;15.978;2023-11-21T07:34:43;98290.09;;;7.28;100.00
68169;BME280;54981;50.206;15.978;2023-11-21T07:44:44;98298.44;;;7.20;100.00
68169;BME280;54981;50.206;15.978;2023-11-21T07:54:46;98315.53;;;7.30;100.00
68169;BME280;54981;50.206;15.978;2023-11-21T08:04:47;98306.53;;;7.67;100.00
68169;BME280;54981;50.206;15.978;2023-11-21T08:14:49;98322.91;;;7.92;100.00
68169;BME280;54981;50.206;15.978;2023-11-21T08:24:50;98304.88;;;8.30;100.00
68169;BME280;54981;50.206;15.978;2023-11-21T08:34:50;98319.44;;;8.23;100.00
68169;BME280;54981;50.206;15.978;2023-11-21T08:44:51;98318.66;;;8.37;100.00
68169;BME280;54981;50.206;15.978;2023-11-21T08:54:51;98324.69;;;8.40;100.00
68169;BME280;54981;50.206;15.978;2023-11-21T09:05:00;98322.38;;;8.50;100.00
68169;BME280;54981;50.206;15.978;2023-11-21T09:15:04;98338.88;;;8.55;100.00
68169;BME280;54981;50.206;15.978;2023-11-21T09:25:05;98337.59;;;8.62;100.00
68169;BME280;54981;50.206;15.978;2023-11-21T09:35:06;98345.09;;;8.70;100.00
68169;BME280;54981;50.206;15.978;2023-11-21T09:45:15;98346.66;;;9.04;100.00
68169;BME280;54981;50.206;15.978;2023-11-21T09:55:18;98350.63;;;9.57;100.00
68169;BME280;54981;50.206;15.978;2023-11-21T10:05:21;98345.41;;;9.70;100.00
68169;BME280;54981;50.206;15.978;2023-11-21T10:15:23;98349.47;;;10.05;100.00
68169;BME280;54981;50.206;15.978;2023-11-21T10:25:27;98361.06;;;9.75;100.00
68169;BME280;54981;50.206;15.978;2023-11-21T10:35:38;98361.63;;;9.66;100.00
68169;BME280;54981;50.206;15.978;2023-11-21T10:45:39;98360.69;;;10.24;100.00
68169;BME280;54981;50.206;15.978;2023-11-21T10:55:40;98363.91;;;10.00;100.00
68169;BME280;54981;50.206;15.978;2023-11-21T11:05:43;98364.19;;;9.67;100.00
68169;BME280;54981;50.206;15.978;2023-11-21T11:15:58;98354.78;;;9.76;100.00
68169;BME280;54981;50.206;15.978;2023-11-21T11:46:10;98357.47;;;9.90;100.00
68169;BME280;54981;50.206;15.978;2023-11-21T12:06:35;98352.03;;;9.63;100.00
68169;BME280;54981;50.206;15.978;2023-11-21T12:16:35;98351.53;;;9.56;100.00
68169;BME280;54981;50.206;15.978;2023-11-21T12:26:36;98365.31;;;9.18;100.00
68169;BME280;54981;50.206;15.978;2023-11-21T12:36:37;98359.59;;;9.10;100.00
68169;BME280;54981;50.206;15.978;2023-11-21T12:46:41;98367.44;;;8.98;100.00
68169;BME280;54981;50.206;15.978;2023-11-21T12:56:45;98366.50;;;8.67;100.00
68169;BME280;54981;50.206;15.978;2023-11-21T13:06:47;98366.38;;;8.54;100.00
68169;BME280;54981;50.206;15.978;2023-11-21T13:16:47;98370.72;;;8.55;100.00
68169;BME280;54981;50.206;15.978;2023-11-21T13:26:48;98376.88;;;8.56;100.00
68169;BME280;54981;50.206;15.978;2023-11-21T13:36:49;98390.38;;;8.51;100.00
68169;BME280;54981;50.206;15.978;2023-11-21T13:46:56;98389.53;;;8.50;100.00
68169;BME280;54981;50.206;15.978;2023-11-21T13:56:58;98404.16;;;8.42;100.00
68169;BME280;54981;50.206;15.978;2023-11-21T14:07:00;98414.69;;;8.43;100.00
68169;BME280;54981;50.206;15.978;2023-11-21T14:17:11;98417.28;;;8.45;100.00
68169;BME280;54981;50.206;15.978;2023-11-21T14:27:11;98418.59;;;8.36;100.00
68169;BME280;54981;50.206;15.978;2023-11-21T14:37:12;98438.00;;;8.37;100.00
68169;BME280;54981;50.206;15.978;2023-11-21T14:47:14;98447.47;;;8.25;100.00
68169;BME280;54981;50.206;15.978;2023-11-21T14:57:16;98447.75;;;8.03;100.00
68169;BME280;54981;50.206;15.978;2023-11-21T15:07:22;98467.75;;;7.93;100.00
68169;BME280;54981;50.206;15.978;2023-11-21T15:17:25;98451.75;;;7.77;100.00
68169;BME280;54981;50.206;15.978;2023-11-21T15:27:30;98469.94;;;7.67;100.00
68169;BME280;54981;50.206;15.978;2023-11-21T15:37:31;98481.00;;;7.75;100.00
68169;BME280;54981;50.206;15.978;2023-11-21T15:47:31;98485.06;;;7.65;100.00
68169;BME280;54981;50.206;15.978;2023-11-21T15:57:32;98497.06;;;7.72;100.00
68169;BME280;54981;50.206;15.978;2023-11-21T16:07:32;98505.47;;;7.80;100.00
68169;BME280;54981;50.206;15.978;2023-11-21T16:17:35;98513.59;;;7.77;100.00
68169;BME280;54981;50.206;15.978;2023-11-21T16:27:37;98527.13;;;7.71;100.00
68169;BME280;54981;50.206;15.978;2023-11-21T16:37:37;98534.75;;;7.60;100.00
68169;BME280;54981;50.206;15.978;2023-11-21T16:47:42;98547.69;;;7.49;100.00
68169;BME280;54981;50.206;15.978;2023-11-21T16:57:42;98559.31;;;7.27;100.00
68169;BME280;54981;50.206;15.978;2023-11-21T17:07:43;98577.63;;;6.94;100.00
68169;BME280;54981;50.206;15.978;2023-11-21T17:17:44;98576.38;;;6.63;100.00
68169;BME280;54981;50.206;15.978;2023-11-21T17:27:44;98586.59;;;6.31;100.00
68169;BME280;54981;50.206;15.978;2023-11-21T17:37:45;98593.66;;;6.10;100.00
68169;BME280;54981;50.206;15.978;2023-11-21T17:47:45;98613.16;;;5.86;100.00
68169;BME280;54981;50.206;15.978;2023-11-21T17:57:46;98623.97;;;5.80;100.00
68169;BME280;54981;50.206;15.978;2023-11-21T18:07:46;98635.22;;;5.63;100.00
68169;BME280;54981;50.206;15.978;2023-11-21T18:17:47;98644.94;;;5.39;100.00
68169;BME280;54981;50.206;15.978;2023-11-21T18:27:48;98651.31;;;5.11;100.00
68169;BME280;54981;50.206;15.978;2023-11-21T18:37:48;98656.38;;;4.92;100.00
68169;BME280;54981;50.206;15.978;2023-11-21T18:47:48;98689.47;;;4.77;100.00
68169;BME280;54981;50.206;15.978;2023-11-21T18:57:49;98697.19;;;4.57;100.00
68169;BME280;54981;50.206;15.978;2023-11-21T19:07:49;98722.13;;;4.48;100.00
68169;BME280;54981;50.206;15.978;2023-11-21T19:17:49;98728.94;;;4.29;100.00
68169;BME280;54981;50.206;15.978;2023-11-21T19:27:50;98739.88;;;4.16;100.00
68169;BME280;54981;50.206;15.978;2023-11-21T19:37:51;98765.50;;;3.83;100.00
68169;BME280;54981;50.206;15.978;2023-11-21T19:47:52;98772.88;;;3.70;100.00
68169;BME280;54981;50.206;15.978;2023-11-21T19:57:52;98797.72;;;3.61;100.00
68169;BME280;54981;50.206;15.978;2023-11-21T20:07:53;98811.59;;;3.37;100.00
68169;BME280;54981;50.206;15.978;2023-11-21T20:17:53;98828.59;;;3.24;100.00
68169;BME280;54981;50.206;15.978;2023-11-21T20:27:55;98844.63;;;3.14;100.00
68169;BME280;54981;50.206;15.978;2023-11-21T20:37:56;98851.28;;;2.95;100.00
68169;BME280;54981;50.206;15.978;2023-11-21T20:47:56;98883.22;;;2.80;100.00
68169;BME280;54981;50.206;15.978;2023-11-21T20:57:57;98880.00;;;2.68;100.00
68169;BME280;54981;50.206;15.978;2023-11-21T21:07:59;98907.50;;;2.53;100.00
68169;BME280;54981;50.206;15.978;2023-11-21T21:18:00;98922.56;;;2.45;100.00
68169;BME280;54981;50.206;15.978;2023-11-21T21:28:01;98936.13;;;2.27;100.00
68169;BME280;54981;50.206;15.978;2023-11-21T21:38:02;98959.97;;;2.16;100.00
68169;BME280;54981;50.206;15.978;2023-11-21T21:48:02;98985.75;;;1.97;100.00
68169;BME280;54981;50.206;15.978;2023-11-21T21:58:03;98991.00;;;1.97;100.00
68169;BME280;54981;50.206;15.978;2023-11-21T22:08:04;99009.50;;;1.91;100.00
68169;BME280;54981;50.206;15.978;2023-11-21T22:18:04;99005.94;;;1.94;100.00
68169;BME280;54981;50.206;15.978;2023-11-21T22:28:05;99009.53;;;1.89;100.00
68169;BME280;54981;50.206;15.978;2023-11-21T22:38:05;99023.03;;;1.69;100.00
68169;BME280;54981;50.206;15.978;2023-11-21T22:48:05;99039.00;;;1.56;100.00
68169;BME280;54981;50.206;15.978;2023-11-21T22:58:06;99045.44;;;1.36;100.00
68169;BME280;54981;50.206;15.978;2023-11-21T23:08:07;99035.94;;;1.29;100.00
68169;BME280;54981;50.206;15.978;2023-11-21T23:18:09;99056.28;;;1.15;100.00
68169;BME280;54981;50.206;15.978;2023-11-21T23:28:09;99065.97;;;1.08;100.00
68169;BME280;54981;50.206;15.978;2023-11-21T23:38:11;99074.81;;;1.02;100.00
68169;BME280;54981;50.206;15.978;2023-11-21T23:48:11;99070.44;;;1.03;100.00
68169;BME280;54981;50.206;15.978;2023-11-21T23:58:13;99088.72;;;1.08;100.00
